Pagrindinis puslapis
METAR-TAF:

METAR-TAF

Oro uostai :

Mumbajus, Indija

platuma: 19-07N, ilguma: 072-51E, Aukštis: 8 m

Dabartinis oras

Ataskaita buvo paskelbta 19 minutes, ne 22:00 UTC
Ramus vėjas
Temperatūra 25°C
Drėgmė 54%
Slėgis 1011 hPa
Matomumas: 3000 m
dūmai

METAR: VABB 232200Z 00000KT 3000 FU NSC 25/15 Q1011 NOSIG

Laikas: 03:49 (22:19 UTC)

Prognozė

Ataskaita buvo paskelbta 2 valandos ir 19 minutes, ne 20:00 UTC
Prognozė galioja nuo 23 metu 21 UTC su 24 metu 06 UTC
Vėjas kt iš Šiaurės
Matomumas: 3000 m
dūmai
Tapsmas
nuo 24 metu 01 UTC su 24 metu 03 UTC
Vėjas 4 kt iš Šiaurės Rytų
Matomumas: 2000 m
dūmai
Tapsmas
nuo 24 metu 04 UTC su 24 metu 06 UTC
Vėjas 8 kt iš Vakarų
Matomumas: 3000 m
dūmai

TAF: VABB 232000Z 2321/2406 00000KT 3000 FU NSC BECMG 2401/2403 04004KT 2000 FU BECMG 2404/2406 26008KT 3000 FU

Orai ataskaitas ir orų prognozės (METAR, TAF).

turimą stotys yra geltonos ir raudonos taškus žemėlapyje.

Perkelti pele per norėdami pamatyti stoties vardą.

Tada spustelėkite, norėdami matyti oro stebėjimo ir prognozės.

Norėdami pakeisti žemėlapį: spustelėkite ant žalios mygtukų su juodo kryžiaus žemyn,; žalią mygtuką su brūkšneliu, jei norite nutolinti; arba žalių rodyklių gretimoms žemėlapius.


METAR-TAF: